createdAt,value
2022-08-21T00:00:34.980Z,11.15
2022-08-21T00:01:28.385Z,10.70
2022-08-21T00:02:24.941Z,11.27
2022-08-21T00:03:13.771Z,10.95
2022-08-21T00:04:10.689Z,10.65
2022-08-21T00:04:57.973Z,11.04
2022-08-21T00:05:51.055Z,11.65
2022-08-21T00:06:39.307Z,11.14
2022-08-21T00:07:26.367Z,11.82
2022-08-21T00:08:13.058Z,10.94
2022-08-21T00:09:02.971Z,11.25
2022-08-21T00:09:55.360Z,11.32
2022-08-21T00:10:43.575Z,11.36
2022-08-21T00:11:41.965Z,11.38
2022-08-21T00:12:32.145Z,11.31
2022-08-21T00:13:20.642Z,11.67
2022-08-21T00:14:11.852Z,11.76
2022-08-21T00:14:59.290Z,11.84
2022-08-21T00:15:50.700Z,12.03
2022-08-21T00:16:41.228Z,11.77
2022-08-21T00:17:27.780Z,12.39
2022-08-21T00:18:19.073Z,12.23
2022-08-21T00:19:10.229Z,11.90
2022-08-21T00:19:56.997Z,11.43
2022-08-21T00:20:45.380Z,11.90
2022-08-21T00:21:32.236Z,12.36
2022-08-21T00:22:19.113Z,12.32
2022-08-21T00:23:05.841Z,12.28
2022-08-21T00:23:53.092Z,12.30
2022-08-21T00:24:40.788Z,12.66
2022-08-21T00:25:28.231Z,12.26
2022-08-21T00:26:14.765Z,11.91
2022-08-21T00:27:03.648Z,11.76
2022-08-21T00:27:50.526Z,11.99
2022-08-21T00:28:37.025Z,12.32
2022-08-21T00:29:23.917Z,12.03
2022-08-21T00:30:12.180Z,12.13
2022-08-21T00:31:09.703Z,12.58
2022-08-21T00:31:56.527Z,12.82
2022-08-21T00:32:43.615Z,13.00
2022-08-21T00:33:31.621Z,12.36
2022-08-21T00:34:18.775Z,12.14
2022-08-21T00:35:08.028Z,12.15
2022-08-21T00:35:54.749Z,12.30
2022-08-21T00:36:43.006Z,11.91
2022-08-21T00:37:30.504Z,12.31
2022-08-21T00:38:18.725Z,12.07
2022-08-21T00:39:07.987Z,11.96
2022-08-21T00:39:54.637Z,12.29
2022-08-21T00:40:57.846Z,12.15
2022-08-21T00:41:46.269Z,12.59
2022-08-21T00:42:36.838Z,12.19
2022-08-21T00:43:35.097Z,12.43
2022-08-21T00:44:21.806Z,12.01
2022-08-21T00:45:09.275Z,11.76
2022-08-21T00:45:57.139Z,12.10
2022-08-21T00:46:44.681Z,13.08
2022-08-21T00:47:31.371Z,13.13
2022-08-21T00:48:18.361Z,11.94
2022-08-21T00:49:09.947Z,12.08
2022-08-21T00:49:57.170Z,11.74
2022-08-21T00:50:57.742Z,11.65
2022-08-21T00:51:56.306Z,11.83
2022-08-21T00:52:47.474Z,11.55
2022-08-21T00:53:40.185Z,12.27
2022-08-21T00:54:30.679Z,12.29
2022-08-21T00:55:18.854Z,12.33
2022-08-21T00:56:09.805Z,11.53
2022-08-21T00:57:03.448Z,11.52
2022-08-21T00:57:57.662Z,11.94
2022-08-21T00:58:46.453Z,12.42
2022-08-21T00:59:39.621Z,11.74
2022-08-21T01:00:32.057Z,12.40
2022-08-21T01:01:22.263Z,11.81
2022-08-21T01:02:10.947Z,11.67
2022-08-21T01:03:00.346Z,11.35
2022-08-21T01:03:47.773Z,11.99
2022-08-21T01:04:39.817Z,11.81
2022-08-21T01:05:29.114Z,12.34
2022-08-21T01:06:17.330Z,12.18
2022-08-21T01:07:04.813Z,11.68
2022-08-21T01:07:51.912Z,11.26
2022-08-21T01:08:39.014Z,11.80
2022-08-21T01:09:33.649Z,11.32
2022-08-21T01:10:23.791Z,12.19
2022-08-21T01:11:11.137Z,12.11
2022-08-21T01:11:58.102Z,12.23
2022-08-21T01:12:46.264Z,12.94
2022-08-21T01:13:39.307Z,11.82
2022-08-21T01:14:29.610Z,12.21
2022-08-21T01:15:23.877Z,11.86
2022-08-21T01:16:10.858Z,11.85
2022-08-21T01:16:59.365Z,11.40
2022-08-21T01:17:54.863Z,12.03
2022-08-21T01:18:41.994Z,12.11
2022-08-21T01:19:33.659Z,11.87
2022-08-21T01:20:23.366Z,11.55
2022-08-21T01:21:28.483Z,11.89
2022-08-21T01:22:15.220Z,11.22
2022-08-21T01:23:06.509Z,12.65
2022-08-21T01:24:02.071Z,12.30
2022-08-21T01:24:48.792Z,11.40
2022-08-21T01:25:36.585Z,11.59
2022-08-21T01:26:33.867Z,12.24
2022-08-21T01:27:22.063Z,12.25
2022-08-21T01:28:14.353Z,12.21
2022-08-21T01:29:20.766Z,11.88
2022-08-21T01:30:20.748Z,12.16
2022-08-21T01:31:13.143Z,12.39
2022-08-21T01:32:06.862Z,11.69
2022-08-21T01:32:56.891Z,12.05
2022-08-21T01:33:43.752Z,11.78
2022-08-21T01:34:33.720Z,11.78
2022-08-21T01:35:21.678Z,11.50
2022-08-21T01:36:09.565Z,11.77
2022-08-21T01:36:56.077Z,11.30
2022-08-21T01:37:45.358Z,11.37
2022-08-21T01:38:32.268Z,11.27
2022-08-21T01:39:18.847Z,11.29
2022-08-21T01:40:07.729Z,11.81
2022-08-21T01:40:57.555Z,12.06
2022-08-21T01:41:44.458Z,11.91
2022-08-21T01:42:31.073Z,11.97
2022-08-21T01:43:17.594Z,11.64
2022-08-21T01:44:10.525Z,11.62
2022-08-21T01:44:57.444Z,11.61
2022-08-21T01:45:46.830Z,12.01
2022-08-21T01:46:33.596Z,11.77
2022-08-21T01:47:20.425Z,11.97
2022-08-21T01:48:07.296Z,11.73
2022-08-21T01:48:53.831Z,11.14
2022-08-21T01:49:41.157Z,11.65
2022-08-21T01:50:27.834Z,11.83
2022-08-21T01:51:18.127Z,11.39
2022-08-21T01:52:09.518Z,11.81
2022-08-21T01:52:56.352Z,12.09
2022-08-21T01:53:43.150Z,12.23
2022-08-21T01:54:30.973Z,11.96
2022-08-21T01:55:19.027Z,11.59
2022-08-21T01:56:12.298Z,11.40
2022-08-21T01:57:01.311Z,11.95
2022-08-21T01:57:49.074Z,11.86
2022-08-21T01:58:38.232Z,11.46
2022-08-21T01:59:25.359Z,11.47
2022-08-21T02:00:15.355Z,11.27
2022-08-21T02:01:08.496Z,10.72
2022-08-21T02:01:56.236Z,11.03
2022-08-21T02:02:43.829Z,11.01
2022-08-21T02:03:36.073Z,11.33
2022-08-21T02:04:23.941Z,11.66
2022-08-21T02:05:12.784Z,12.50
2022-08-21T02:06:01.533Z,12.38
2022-08-21T02:06:51.727Z,11.70
2022-08-21T02:07:44.061Z,11.64
2022-08-21T02:08:31.299Z,11.48
2022-08-21T02:09:18.635Z,11.69
2022-08-21T02:10:08.750Z,12.13
2022-08-21T02:10:56.298Z,11.88
2022-08-21T02:11:43.857Z,11.58
2022-08-21T02:12:30.455Z,11.97
2022-08-21T02:13:17.991Z,11.88
2022-08-21T02:14:04.746Z,11.46
2022-08-21T02:14:51.374Z,11.28
2022-08-21T02:15:40.432Z,11.96
2022-08-21T02:16:27.143Z,11.55
2022-08-21T02:17:17.141Z,12.71
2022-08-21T02:18:08.578Z,11.70
2022-08-21T02:18:55.223Z,11.34
2022-08-21T02:19:41.753Z,11.71
2022-08-21T02:20:38.313Z,12.50
2022-08-21T02:21:24.830Z,11.70
2022-08-21T02:22:12.731Z,11.70
2022-08-21T02:22:59.987Z,11.76
2022-08-21T02:23:49.621Z,11.64
2022-08-21T02:24:38.541Z,11.88
2022-08-21T02:25:42.548Z,11.48
2022-08-21T02:26:29.260Z,11.64
2022-08-21T02:27:15.935Z,12.51
2022-08-21T02:28:12.300Z,12.80
2022-08-21T02:28:59.584Z,12.01
2022-08-21T02:29:46.176Z,11.56
2022-08-21T02:30:39.401Z,11.75
2022-08-21T02:31:25.956Z,12.08
2022-08-21T02:32:15.293Z,12.23
2022-08-21T02:33:02.316Z,12.42
2022-08-21T02:33:49.049Z,12.33
2022-08-21T02:34:35.743Z,12.38
2022-08-21T02:35:23.261Z,12.24
2022-08-21T02:36:13.197Z,12.59
2022-08-21T02:36:59.975Z,11.87
2022-08-21T02:37:53.200Z,11.44
2022-08-21T02:38:42.430Z,11.87
2022-08-21T02:39:31.220Z,11.73
2022-08-21T02:40:22.082Z,12.57
2022-08-21T02:41:14.329Z,11.84
2022-08-21T02:42:00.841Z,11.41
2022-08-21T02:42:47.931Z,12.09
2022-08-21T02:43:36.604Z,11.82
2022-08-21T02:44:34.545Z,12.04
2022-08-21T02:45:23.198Z,11.59
2022-08-21T02:46:13.281Z,11.49
2022-08-21T02:46:59.789Z,11.62
2022-08-21T02:48:00.208Z,12.53
2022-08-21T02:48:47.333Z,11.89
2022-08-21T02:49:33.921Z,11.73
2022-08-21T02:50:27.966Z,11.44
2022-08-21T02:51:18.963Z,11.31
2022-08-21T02:52:06.838Z,11.36
2022-08-21T02:52:55.157Z,11.71
2022-08-21T02:53:43.968Z,11.24
2022-08-21T02:54:30.468Z,11.02
2022-08-21T02:55:17.102Z,11.48
2022-08-21T02:56:10.554Z,11.39
2022-08-21T02:56:57.303Z,11.88
2022-08-21T02:57:44.049Z,11.39
2022-08-21T02:58:34.922Z,11.14
2022-08-21T02:59:22.645Z,11.61
2022-08-21T03:00:12.703Z,12.02
2022-08-21T03:00:59.791Z,12.50
2022-08-21T03:01:46.440Z,11.92
2022-08-21T03:02:33.334Z,11.82
2022-08-21T03:03:21.979Z,11.82
2022-08-21T03:04:10.354Z,11.79
2022-08-21T03:04:56.951Z,12.28
2022-08-21T03:05:47.928Z,11.71
2022-08-21T03:06:34.669Z,11.52
2022-08-21T03:07:21.181Z,12.34
2022-08-21T03:08:11.252Z,11.71
2022-08-21T03:08:58.608Z,11.59
2022-08-21T03:09:55.708Z,11.02
2022-08-21T03:10:50.051Z,11.58
2022-08-21T03:11:37.047Z,11.35
2022-08-21T03:12:27.896Z,11.46
2022-08-21T03:13:18.879Z,11.40
2022-08-21T03:14:06.130Z,10.57
2022-08-21T03:14:52.757Z,10.93
2022-08-21T03:15:40.953Z,11.42
2022-08-21T03:16:28.619Z,11.20
2022-08-21T03:17:16.523Z,11.32
2022-08-21T03:18:05.601Z,11.76
2022-08-21T03:18:52.566Z,11.11
2022-08-21T03:19:40.159Z,11.69
2022-08-21T03:20:29.406Z,12.15
2022-08-21T03:21:17.993Z,11.77
2022-08-21T03:22:05.044Z,11.35
2022-08-21T03:22:53.739Z,11.90
2022-08-21T03:23:42.950Z,11.56
2022-08-21T03:24:30.879Z,11.42
2022-08-21T03:25:20.537Z,11.88
2022-08-21T03:26:14.883Z,11.31
2022-08-21T03:27:03.075Z,11.50
2022-08-21T03:27:58.807Z,11.03
2022-08-21T03:28:46.489Z,10.96
2022-08-21T03:29:33.164Z,11.77
2022-08-21T03:30:21.695Z,12.50
2022-08-21T03:31:08.306Z,11.97
2022-08-21T03:31:55.106Z,11.45
2022-08-21T03:32:42.081Z,11.06
2022-08-21T03:33:28.817Z,11.12
2022-08-21T03:34:15.515Z,11.70
2022-08-21T03:35:02.552Z,11.92
2022-08-21T03:35:58.828Z,11.60
2022-08-21T03:36:49.890Z,11.87
2022-08-21T03:37:37.650Z,11.59
2022-08-21T03:38:26.734Z,11.52
2022-08-21T03:39:13.526Z,11.66
2022-08-21T03:40:10.360Z,11.28
2022-08-21T03:40:57.526Z,11.38
2022-08-21T03:41:44.184Z,11.44
2022-08-21T03:42:30.732Z,11.69
2022-08-21T03:43:17.462Z,11.94
2022-08-21T03:44:04.221Z,11.51
2022-08-21T03:44:51.645Z,11.71
2022-08-21T03:45:39.342Z,11.24
2022-08-21T03:46:25.987Z,11.54
2022-08-21T03:47:12.729Z,11.37
2022-08-21T03:48:02.878Z,10.84
2022-08-21T03:48:49.713Z,10.59
2022-08-21T03:49:36.932Z,10.95
2022-08-21T03:50:30.316Z,11.11
2022-08-21T03:51:16.893Z,11.04
2022-08-21T03:52:05.257Z,11.14
2022-08-21T03:52:51.853Z,11.04
2022-08-21T03:53:38.699Z,11.51
2022-08-21T03:54:26.015Z,11.77
2022-08-21T03:55:15.814Z,11.86
2022-08-21T03:56:02.679Z,11.98
2022-08-21T03:56:49.396Z,10.91
2022-08-21T03:57:36.135Z,11.57
2022-08-21T03:58:26.722Z,11.61
2022-08-21T03:59:16.033Z,11.83
2022-08-21T04:00:03.295Z,11.49
2022-08-21T04:00:57.442Z,11.05
2022-08-21T04:01:59.594Z,11.33
2022-08-21T04:02:47.351Z,11.01
2022-08-21T04:03:36.777Z,11.29
2022-08-21T04:04:25.458Z,11.64
2022-08-21T04:05:14.606Z,11.14
2022-08-21T04:06:01.104Z,11.11
2022-08-21T04:06:49.393Z,11.51
2022-08-21T04:07:37.144Z,11.63
2022-08-21T04:08:24.940Z,11.83
2022-08-21T04:09:11.564Z,11.45
2022-08-21T04:09:58.103Z,11.96
2022-08-21T04:10:49.537Z,11.85
2022-08-21T04:11:36.175Z,11.63
2022-08-21T04:12:22.785Z,11.50
2022-08-21T04:13:12.624Z,11.64
2022-08-21T04:14:03.056Z,11.76
2022-08-21T04:14:49.590Z,11.57
2022-08-21T04:15:39.059Z,11.24
2022-08-21T04:16:25.832Z,11.41
2022-08-21T04:17:12.514Z,11.74
2022-08-21T04:17:59.866Z,11.54
2022-08-21T04:18:46.618Z,11.59
2022-08-21T04:19:33.537Z,11.64
2022-08-21T04:20:22.462Z,11.12
2022-08-21T04:21:12.367Z,11.03
2022-08-21T04:22:00.145Z,11.41
2022-08-21T04:22:46.837Z,11.88
2022-08-21T04:23:33.509Z,11.78
2022-08-21T04:24:20.306Z,11.33
2022-08-21T04:25:08.329Z,11.40
2022-08-21T04:25:57.211Z,11.50
2022-08-21T04:26:43.707Z,10.98
2022-08-21T04:27:30.178Z,11.19
2022-08-21T04:28:16.674Z,11.67
2022-08-21T04:29:07.436Z,11.55
2022-08-21T04:29:56.897Z,11.55
2022-08-21T04:30:44.480Z,11.50
2022-08-21T04:31:31.057Z,11.62
2022-08-21T04:32:26.952Z,11.60
2022-08-21T04:33:13.820Z,11.17
2022-08-21T04:34:00.428Z,10.76
2022-08-21T04:34:47.090Z,11.35
2022-08-21T04:35:36.058Z,11.21
2022-08-21T04:36:23.699Z,11.77
2022-08-21T04:37:11.019Z,11.42
2022-08-21T04:38:00.611Z,11.57
2022-08-21T04:38:47.094Z,11.80
2022-08-21T04:39:33.720Z,11.67
2022-08-21T04:40:22.393Z,11.17
2022-08-21T04:41:09.178Z,10.78
2022-08-21T04:41:55.701Z,11.40
2022-08-21T04:42:51.352Z,11.50
2022-08-21T04:43:39.653Z,11.05
2022-08-21T04:44:26.216Z,11.17
2022-08-21T04:45:26.184Z,11.38
2022-08-21T04:46:15.447Z,11.16
2022-08-21T04:47:02.533Z,10.97
2022-08-21T04:47:53.893Z,10.78
2022-08-21T04:48:41.380Z,11.07
2022-08-21T04:49:27.879Z,10.91
2022-08-21T04:50:15.218Z,11.13
2022-08-21T04:51:20.185Z,10.88
2022-08-21T04:52:06.722Z,10.93
2022-08-21T04:52:56.940Z,10.97
2022-08-21T04:53:51.477Z,11.30
2022-08-21T04:54:40.997Z,10.82
2022-08-21T04:55:28.957Z,11.35
2022-08-21T04:56:22.717Z,11.62
2022-08-21T04:57:12.055Z,11.14
2022-08-21T04:58:00.533Z,11.34
2022-08-21T04:58:49.748Z,10.61
2022-08-21T04:59:41.786Z,10.95
2022-08-21T05:00:28.452Z,11.59
2022-08-21T05:01:21.057Z,11.00
2022-08-21T05:02:09.918Z,11.38
2022-08-21T05:03:00.289Z,11.03
2022-08-21T05:03:52.110Z,11.05
2022-08-21T05:04:45.466Z,11.66
2022-08-21T05:05:32.050Z,11.01
2022-08-21T05:06:21.931Z,11.48
2022-08-21T05:07:16.357Z,11.81
2022-08-21T05:08:26.467Z,11.97
2022-08-21T05:09:19.226Z,11.74
2022-08-21T05:10:09.242Z,11.91
2022-08-21T05:11:00.293Z,11.40
2022-08-21T05:11:48.254Z,10.63
2022-08-21T05:12:35.862Z,11.09
2022-08-21T05:13:23.604Z,11.35
2022-08-21T05:14:12.475Z,10.75
2022-08-21T05:14:59.007Z,11.05
2022-08-21T05:15:45.863Z,11.52
2022-08-21T05:16:37.070Z,11.59
2022-08-21T05:17:24.719Z,11.61
2022-08-21T05:18:11.834Z,11.89
2022-08-21T05:18:59.654Z,12.11
2022-08-21T05:19:46.389Z,11.73
2022-08-21T05:20:35.337Z,11.16
2022-08-21T05:21:22.106Z,12.26
2022-08-21T05:22:12.311Z,12.45
2022-08-21T05:22:59.242Z,12.03
2022-08-21T05:23:49.032Z,11.47
2022-08-21T05:24:35.973Z,11.18
2022-08-21T05:25:23.792Z,11.02
2022-08-21T05:26:18.050Z,11.59
2022-08-21T05:27:05.201Z,11.60
2022-08-21T05:27:52.238Z,11.62
2022-08-21T05:28:39.314Z,11.89
2022-08-21T05:29:28.234Z,11.25
2022-08-21T05:30:16.960Z,10.98
2022-08-21T05:31:05.095Z,11.37
2022-08-21T05:31:51.671Z,11.66
2022-08-21T05:32:41.112Z,11.79
2022-08-21T05:33:28.046Z,10.89
2022-08-21T05:34:22.758Z,11.10
2022-08-21T05:35:09.998Z,11.36
2022-08-21T05:35:56.938Z,10.68
2022-08-21T05:36:43.535Z,10.75
2022-08-21T05:37:30.039Z,11.64
2022-08-21T05:38:18.118Z,10.86
2022-08-21T05:39:05.198Z,10.33
2022-08-21T05:40:21.835Z,11.08
2022-08-21T05:40:58.709Z,11.06
2022-08-21T05:41:45.261Z,11.05
2022-08-21T05:42:31.705Z,10.83
2022-08-21T05:43:18.297Z,11.25
2022-08-21T05:44:04.973Z,11.30
2022-08-21T05:44:56.880Z,11.62
2022-08-21T05:45:44.591Z,11.62
2022-08-21T05:46:34.398Z,11.03
2022-08-21T05:47:20.858Z,11.22
2022-08-21T05:48:33.665Z,11.41
2022-08-21T05:49:20.280Z,11.62
2022-08-21T05:50:07.233Z,11.90
2022-08-21T05:50:54.678Z,11.13
2022-08-21T05:51:42.984Z,11.18
2022-08-21T05:52:29.665Z,10.93
2022-08-21T05:53:21.738Z,11.08
2022-08-21T05:54:11.123Z,11.55
2022-08-21T05:54:57.631Z,11.21
2022-08-21T05:55:46.949Z,11.58
2022-08-21T05:56:36.797Z,11.32
2022-08-21T05:57:26.522Z,11.18
2022-08-21T05:58:19.424Z,10.99
2022-08-21T05:59:08.567Z,11.65
2022-08-21T05:59:55.645Z,12.24
2022-08-21T06:00:43.170Z,11.57
2022-08-21T06:01:32.855Z,12.65
2022-08-21T06:02:20.847Z,12.95
2022-08-21T06:03:17.847Z,13.08
2022-08-21T06:04:04.519Z,12.56
2022-08-21T06:04:52.107Z,12.05
2022-08-21T06:05:38.675Z,12.06
2022-08-21T06:06:25.145Z,12.23
2022-08-21T06:07:12.009Z,12.74
2022-08-21T06:07:58.600Z,13.39
2022-08-21T06:08:47.947Z,13.37
2022-08-21T06:09:34.500Z,12.43
2022-08-21T06:10:21.591Z,12.57
2022-08-21T06:11:09.591Z,12.90
2022-08-21T06:11:56.229Z,12.62
2022-08-21T06:12:42.846Z,12.51
2022-08-21T06:13:30.078Z,12.21
2022-08-21T06:14:23.414Z,11.97
2022-08-21T06:15:10.103Z,11.93
2022-08-21T06:16:09.696Z,12.19
2022-08-21T06:17:04.220Z,12.43
2022-08-21T06:17:50.675Z,12.48
2022-08-21T06:18:39.642Z,12.74
2022-08-21T06:19:26.296Z,12.48
2022-08-21T06:20:12.806Z,12.94
2022-08-21T06:20:59.459Z,12.33
2022-08-21T06:21:47.511Z,12.45
2022-08-21T06:22:34.066Z,12.38
2022-08-21T06:23:23.489Z,12.36
2022-08-21T06:24:22.492Z,12.56
2022-08-21T06:25:10.210Z,12.80
2022-08-21T06:25:58.764Z,12.03
2022-08-21T06:26:45.206Z,11.95
2022-08-21T06:27:31.721Z,11.92
2022-08-21T06:28:19.491Z,12.42
2022-08-21T06:29:13.387Z,12.06
2022-08-21T06:29:59.926Z,11.92
2022-08-21T06:30:46.669Z,12.61
2022-08-21T06:31:33.752Z,12.20
2022-08-21T06:32:23.367Z,12.41
2022-08-21T06:33:11.958Z,12.45
2022-08-21T06:34:00.107Z,11.88
2022-08-21T06:34:46.986Z,11.59
2022-08-21T06:35:45.931Z,11.62
2022-08-21T06:36:32.662Z,12.13
2022-08-21T06:37:21.933Z,12.47
2022-08-21T06:38:11.815Z,12.40
2022-08-21T06:38:59.992Z,12.36
2022-08-21T06:39:49.696Z,11.62
2022-08-21T06:40:36.626Z,11.99
2022-08-21T06:41:30.680Z,12.10
2022-08-21T06:42:26.918Z,12.63
2022-08-21T06:43:17.614Z,13.39
2022-08-21T06:44:07.239Z,13.54
2022-08-21T06:44:53.826Z,13.04
2022-08-21T06:45:40.980Z,13.24
2022-08-21T06:46:31.200Z,13.12
2022-08-21T06:47:17.751Z,12.32
2022-08-21T06:48:05.417Z,12.70
2022-08-21T06:48:56.513Z,12.70
2022-08-21T06:49:43.203Z,12.68
2022-08-21T06:50:31.270Z,12.15
2022-08-21T06:51:18.371Z,12.55
2022-08-21T06:52:04.883Z,11.86
2022-08-21T06:53:00.144Z,12.16
2022-08-21T06:53:46.938Z,11.82
2022-08-21T06:54:33.959Z,11.66
2022-08-21T06:55:24.443Z,12.10
2022-08-21T06:56:12.906Z,11.67
2022-08-21T06:56:59.435Z,12.43
2022-08-21T06:57:47.974Z,12.69
2022-08-21T06:58:39.423Z,13.09
2022-08-21T06:59:26.117Z,12.21
2022-08-21T07:00:15.241Z,12.34
2022-08-21T07:01:01.992Z,12.63
2022-08-21T07:01:49.048Z,12.60
2022-08-21T07:02:35.813Z,12.63
2022-08-21T07:03:35.430Z,11.77
2022-08-21T07:04:22.149Z,11.80
2022-08-21T07:05:17.749Z,12.04
2022-08-21T07:06:09.904Z,12.27
2022-08-21T07:06:56.655Z,12.64
2022-08-21T07:07:45.569Z,11.94
2022-08-21T07:08:32.503Z,12.40
2022-08-21T07:09:24.691Z,12.54
2022-08-21T07:10:22.513Z,13.11
2022-08-21T07:11:18.789Z,12.27
2022-08-21T07:12:05.479Z,12.65
2022-08-21T07:13:01.388Z,12.43
2022-08-21T07:13:49.334Z,12.52
2022-08-21T07:14:35.961Z,11.91
2022-08-21T07:15:22.796Z,12.36
2022-08-21T07:16:09.430Z,12.95
2022-08-21T07:16:58.291Z,11.95
2022-08-21T07:17:45.021Z,12.07
2022-08-21T07:18:32.139Z,10.82
2022-08-21T07:19:19.903Z,10.98
2022-08-21T07:20:08.825Z,12.89
2022-08-21T07:20:56.552Z,12.46
2022-08-21T07:21:45.908Z,11.74
2022-08-21T07:22:33.583Z,11.85
2022-08-21T07:23:29.198Z,12.59
2022-08-21T07:24:16.094Z,11.97
2022-08-21T07:25:03.981Z,11.74
2022-08-21T07:25:51.312Z,11.42
2022-08-21T07:26:41.506Z,11.30
2022-08-21T07:27:28.301Z,11.81
2022-08-21T07:28:22.441Z,11.76
2022-08-21T07:29:08.964Z,10.94
2022-08-21T07:29:55.465Z,11.61
2022-08-21T07:30:42.052Z,12.16
2022-08-21T07:31:28.817Z,11.79
2022-08-21T07:32:21.393Z,11.53
2022-08-21T07:33:10.819Z,10.44
2022-08-21T07:33:57.673Z,11.15
2022-08-21T07:34:44.345Z,10.54
2022-08-21T07:35:32.221Z,9.72
2022-08-21T07:36:19.660Z,10.14
2022-08-21T07:37:10.025Z,10.78
2022-08-21T07:37:59.269Z,10.39
2022-08-21T07:38:46.229Z,10.42
2022-08-21T07:39:32.736Z,10.85
2022-08-21T07:40:20.148Z,11.76
2022-08-21T07:41:15.115Z,10.97
2022-08-21T07:42:08.231Z,10.46
2022-08-21T07:42:58.109Z,10.61
2022-08-21T07:43:46.341Z,10.45
2022-08-21T07:44:35.711Z,10.61
2022-08-21T07:45:25.995Z,10.20
2022-08-21T07:46:17.312Z,10.07
2022-08-21T07:47:05.658Z,9.97
2022-08-21T07:47:57.522Z,10.51
2022-08-21T07:48:44.496Z,10.39
2022-08-21T07:49:34.415Z,10.50
2022-08-21T07:50:21.385Z,9.86
2022-08-21T07:51:14.631Z,9.23
2022-08-21T07:52:02.170Z,9.62
2022-08-21T07:52:51.289Z,8.87
2022-08-21T07:53:38.908Z,8.91
2022-08-21T07:54:33.564Z,9.66
2022-08-21T07:55:24.717Z,9.05
2022-08-21T07:56:12.118Z,9.11
2022-08-21T07:56:59.549Z,8.16
2022-08-21T07:57:50.510Z,8.80
2022-08-21T07:58:37.161Z,9.00
2022-08-21T07:59:26.814Z,9.12
2022-08-21T08:00:21.785Z,8.68
2022-08-21T08:01:08.446Z,7.97
2022-08-21T08:02:01.884Z,8.45
2022-08-21T08:02:55.124Z,7.85
2022-08-21T08:03:43.220Z,7.84
2022-08-21T08:04:39.188Z,7.70
2022-08-21T08:05:49.427Z,7.06
2022-08-21T08:06:41.570Z,6.77
2022-08-21T08:07:30.189Z,7.12
2022-08-21T08:08:22.641Z,6.63
2022-08-21T08:09:09.399Z,6.09
2022-08-21T08:09:59.475Z,5.54
2022-08-21T08:10:47.033Z,5.31
2022-08-21T08:11:36.052Z,5.80
2022-08-21T08:12:25.331Z,5.78
2022-08-21T08:13:15.823Z,5.48
2022-08-21T08:14:09.463Z,5.19
2022-08-21T08:14:59.919Z,5.38
2022-08-21T08:15:48.789Z,5.27
2022-08-21T08:16:38.904Z,5.02
2022-08-21T08:17:26.700Z,5.25
2022-08-21T08:18:14.716Z,5.25
2022-08-21T08:19:06.892Z,5.91
2022-08-21T08:20:03.421Z,5.32
2022-08-21T08:20:52.891Z,4.76
2022-08-21T08:21:42.537Z,5.04
2022-08-21T08:22:29.225Z,4.90
2022-08-21T08:23:16.401Z,4.85
2022-08-21T08:24:18.431Z,5.24
2022-08-21T08:25:09.603Z,4.98
2022-08-21T08:26:03.517Z,4.91
2022-08-21T08:26:53.822Z,5.46
2022-08-21T08:27:44.546Z,5.62
2022-08-21T08:28:32.948Z,5.48
2022-08-21T08:29:20.158Z,5.76
2022-08-21T08:30:15.641Z,5.99
2022-08-21T08:31:05.714Z,4.81
2022-08-21T08:31:58.488Z,4.01
2022-08-21T08:32:48.329Z,3.45
2022-08-21T08:33:47.667Z,3.57
2022-08-21T08:34:38.286Z,3.38
2022-08-21T08:35:29.842Z,3.39
2022-08-21T08:36:26.179Z,3.55
2022-08-21T08:37:28.805Z,3.23
2022-08-21T08:38:31.552Z,3.14
2022-08-21T08:39:39.711Z,3.40
2022-08-21T08:40:36.915Z,3.69
2022-08-21T08:41:37.060Z,3.64
2022-08-21T08:42:34.690Z,2.91
2022-08-21T08:43:34.715Z,3.23
2022-08-21T08:44:30.451Z,3.09
2022-08-21T08:45:28.228Z,3.33
2022-08-21T08:46:24.254Z,3.30
2022-08-21T08:47:25.705Z,3.37
2022-08-21T08:48:22.972Z,3.24
2022-08-21T08:49:45.228Z,3.50
2022-08-21T08:50:55.810Z,3.26
2022-08-21T08:52:00.638Z,3.36
2022-08-21T08:53:01.631Z,3.26
2022-08-21T08:54:06.044Z,3.35
2022-08-21T08:55:03.417Z,3.04
2022-08-21T08:55:57.268Z,3.03
2022-08-21T08:56:47.724Z,2.95
2022-08-21T08:57:50.051Z,3.23
2022-08-21T08:58:45.813Z,2.98
2022-08-21T08:59:58.169Z,3.14
2022-08-21T09:00:52.219Z,2.64
2022-08-21T09:01:41.223Z,2.91
2022-08-21T09:02:34.453Z,2.71
2022-08-21T09:03:29.270Z,2.95
2022-08-21T09:04:24.925Z,2.45
2022-08-21T09:05:30.817Z,2.60
2022-08-21T09:06:47.720Z,2.61
2022-08-21T09:07:53.952Z,2.32
2022-08-21T09:09:19.154Z,2.54
2022-08-21T09:10:25.180Z,2.74
2022-08-21T09:11:31.122Z,2.34
2022-08-21T09:12:52.767Z,2.27
2022-08-21T09:14:02.770Z,2.30
2022-08-21T09:14:58.812Z,2.56
2022-08-21T09:16:14.181Z,2.35
2022-08-21T09:17:34.979Z,2.42
2022-08-21T09:18:39.819Z,2.34
2022-08-21T09:19:56.640Z,2.16
2022-08-21T09:21:16.117Z,2.30
2022-08-21T09:22:32.960Z,2.30
2022-08-21T09:23:31.502Z,2.21
2022-08-21T09:24:30.737Z,2.52
2022-08-21T09:25:31.669Z,2.21
2022-08-21T09:26:22.565Z,2.21
2022-08-21T09:27:15.800Z,2.29
2022-08-21T09:28:02.718Z,2.14
2022-08-21T09:29:01.658Z,2.04
2022-08-21T09:29:53.401Z,2.15
2022-08-21T09:30:43.054Z,2.19
2022-08-21T09:31:35.711Z,2.10
2022-08-21T09:32:37.631Z,2.23
2022-08-21T09:33:25.497Z,2.37
2022-08-21T09:34:30.070Z,2.40
2022-08-21T09:35:23.598Z,2.42
2022-08-21T09:36:11.071Z,2.37
2022-08-21T09:36:59.606Z,2.48
2022-08-21T09:38:08.365Z,2.71
2022-08-21T09:38:58.132Z,2.58
2022-08-21T09:39:48.923Z,2.43
2022-08-21T09:40:56.652Z,2.51
2022-08-21T09:41:43.900Z,2.23
2022-08-21T09:42:33.593Z,2.29
2022-08-21T09:43:25.765Z,2.30
2022-08-21T09:44:12.492Z,2.38
2022-08-21T09:45:11.413Z,2.60
2022-08-21T09:46:20.986Z,2.56
2022-08-21T09:47:13.817Z,2.46
2022-08-21T09:48:13.952Z,2.50
2022-08-21T09:49:04.294Z,2.38
2022-08-21T09:49:57.617Z,2.55
2022-08-21T09:50:51.795Z,2.72
2022-08-21T09:51:39.634Z,2.68
2022-08-21T09:52:29.766Z,2.48
2022-08-21T09:53:29.725Z,2.38
2022-08-21T09:54:23.760Z,2.44
2022-08-21T09:55:40.872Z,2.55
2022-08-21T09:57:18.503Z,2.03
2022-08-21T09:58:07.466Z,2.07
2022-08-21T09:58:57.803Z,2.39
2022-08-21T09:59:52.747Z,2.19
2022-08-21T10:00:39.753Z,2.30
2022-08-21T10:01:31.034Z,2.49
2022-08-21T10:02:33.710Z,2.31
2022-08-21T10:03:22.703Z,2.37
2022-08-21T10:04:15.436Z,2.14
2022-08-21T10:05:15.978Z,2.35
2022-08-21T10:06:10.822Z,2.87
2022-08-21T10:07:18.378Z,2.40
2022-08-21T10:08:06.580Z,2.15
2022-08-21T10:09:06.328Z,2.19
2022-08-21T10:10:10.590Z,2.62
2022-08-21T10:11:10.963Z,2.30
2022-08-21T10:12:24.087Z,2.51
2022-08-21T10:13:43.186Z,2.16
2022-08-21T10:14:47.050Z,2.37
2022-08-21T10:15:55.441Z,2.33
2022-08-21T10:16:45.030Z,2.41
2022-08-21T10:17:56.222Z,2.38
2022-08-21T10:19:03.730Z,2.93
2022-08-21T10:20:08.141Z,2.22
2022-08-21T10:21:11.977Z,2.32
2022-08-21T10:22:13.760Z,2.25
2022-08-21T10:23:18.168Z,2.44
2022-08-21T10:24:32.228Z,2.55
2022-08-21T10:25:39.646Z,2.21
2022-08-21T10:27:19.784Z,1.92
2022-08-21T10:28:14.027Z,2.31
2022-08-21T10:29:33.570Z,2.14
2022-08-21T10:30:50.229Z,2.35
2022-08-21T10:32:22.436Z,2.12
2022-08-21T10:33:43.755Z,2.39
2022-08-21T10:34:54.093Z,2.26
2022-08-21T10:36:06.223Z,2.30
2022-08-21T10:37:11.858Z,2.44
2022-08-21T10:38:33.568Z,2.17
2022-08-21T10:40:01.781Z,2.08
2022-08-21T10:40:54.882Z,1.95
2022-08-21T10:42:03.599Z,2.23
2022-08-21T10:43:12.012Z,2.08
2022-08-21T10:44:13.148Z,1.95
2022-08-21T10:45:31.967Z,2.09
2022-08-21T10:46:53.381Z,2.19
2022-08-21T10:47:58.128Z,2.47
2022-08-21T10:48:47.221Z,2.28
2022-08-21T10:49:58.592Z,2.18
2022-08-21T10:51:12.050Z,2.37
2022-08-21T10:52:36.433Z,2.42
2022-08-21T10:53:39.751Z,2.20
2022-08-21T10:54:40.099Z,2.50
2022-08-21T10:56:04.595Z,2.25
2022-08-21T10:57:06.175Z,2.12
2022-08-21T10:58:25.415Z,1.95
2022-08-21T10:59:42.434Z,2.11
2022-08-21T11:00:39.718Z,2.07
2022-08-21T11:01:43.605Z,2.22
2022-08-21T11:02:38.142Z,2.32
2022-08-21T11:03:38.345Z,2.20
2022-08-21T11:04:52.080Z,2.02
2022-08-21T11:05:50.549Z,2.07
2022-08-21T11:06:45.252Z,2.39
2022-08-21T11:08:07.838Z,2.05
2022-08-21T11:09:21.222Z,2.41
2022-08-21T11:10:24.820Z,2.07
2022-08-21T11:11:37.209Z,1.91
2022-08-21T11:13:02.981Z,1.90
2022-08-21T11:13:58.241Z,2.17
2022-08-21T11:14:53.829Z,2.22
2022-08-21T11:16:03.712Z,2.30
2022-08-21T11:17:25.627Z,1.77
2022-08-21T11:18:45.725Z,2.33